Hauptseite
METAR-TAF:

METAR-TAF

Flughäfen :

Pittsburgh, Pennsylvania, Vereinigte Staaten

Pittsburgh International Airport

Breite: 40-30-14N, Länge: 080-15-59W, Höhe: 366 m

Beobachtung

Neuester Wetterbericht von vor 23 Minuten, um 05:51 UTC
Wind 3 kt aus Nord/Nordost
Temperatur -5°C
Luftfeuchtigkeit 53%
Luftdruck 1033 hPa
Sichtweite: 16.1 km
Himmel klar

METAR: KPIT 230551Z 03003KT 10SM CLR M05/M13 A3050 RMK AO2 SLP351 T10501128 10000 21056 51002

Zeit: 02:14 (06:14 UTC)

Prognose

Neuester Wetterbericht von vor 54 Minuten, um 05:20 UTC
Gültige Prognose vom 23 um 06 UTC bis 24 um 12 UTC
Wind 3 kt aus Nord/Nordost
Sichtweite: 10 km
Himmel klar
Ab 23 um 1500 UTC
Wind 5 kt aus Ost
Sichtweite: 10 km
Himmel klar
Ab 24 um 0900 UTC
Wind 8 kt aus Süd
Sichtweite: 10 km
Durchbrochene Bewölkung in der Höhe von 10000 ft

TAF: KPIT 230520Z 2306/2412 03003KT P6SM SKC FM231500 10005KT P6SM SKC FM240900 17008KT P6SM BKN100

Wetterbeobachtungen und Prognosen von mehr als 4000 Flughäfen (METAR und TAF Bericht).

Die verfügbaren Stationen werden durch gelbe und rote Markierungen auf der Karte dargestellt.

Führen Sie die Maus auf sie, um den Namen der Station zu sehen.

Darauf klicken, um die Beobachtung von Wetterbeobachtungen und Prognosen zu sehen.

Um die Karte zu ändern : klicken Sie auf den grünen Tasten mit einem schwarzen Kreuz Zum Vergrößern, auf den grünen Button mit einem Gedankenstrich zu verkleinern, oder auf die grünen Pfeile für benachbarte Karten.


METAR-TAF: